Portada
METAR-TAF:

METAR-TAF

Aeroports :

Fairfield Municipal Airport

Fairfield, Iowa, Estats Units d'Amèrica

latitud: 41-03N, longitud: 091-59W, altitud: 244 m

Observació

L'informe es va fer fa 27 minuts, a les 12:55 UTC
Vent 6 kt del Est/Nord-Est
Temperatura 21°C
Humitat 100%
Pressió 1025 hPa
Visibilitat: 14.5 km
Núvols disperses a una alçada de 500 ft
Núvols disperses a una alçada de 6000 ft
Cel ennuvolat a una alçada de 9000 ft

METAR: KFFL 201255Z AUTO 07006KT 9SM SCT005 SCT060 BKN090 21/21 A3028 RMK A01

Hora: 08:22 (13:22 UTC)


TAF: manca

Observacions i pronòstics meteorològics de més de 4000 aeroports (METAR i TAF).

Les estacions disponibles són els punts grocs i vermells al mapa.

Posi el ratolí al punt desitjat per veure el nom de l'estació.

Feu clic per veure les observacions i els pronòstics meteorològics.

Per canviar el mapa: feu clic els botons verds amb una creu de color negre per apropar; al botó verd amb un guió per allunyar la imatge; o en les fletxes verdes per a mapes adjacents.


METAR-TAF: